Time;durP1;ratioP1;P1;durP2;ratioP2;P2;SDS_P1;SDS_P2;PMS_P1;PMS_P2;Temp;Humidity;BMP_temperature;BMP_pressure;BME280_temperature;BME280_humidity;BME280_pressure;Samples;Min_cycle;Max_cycle;Signal;HPM_P1;HPM_P2
2022/01/27 00:05:15;;;;;;;55.40;27.65;;;;;;;1.91;80.66;101292.72;4994770;28;20073;-62
2022/01/27 00:07:38;;;;;;;56.13;26.98;;;;;;;1.92;80.96;101289.38;4993938;28;20046;-63
2022/01/27 00:12:43;;;;;;;54.42;28.05;;;;;;;1.91;81.20;101288.47;4993441;28;20494;-63
2022/01/27 00:15:14;;;;;;;54.47;26.48;;;;;;;1.92;81.30;101289.38;4994324;28;20049;-64
2022/01/27 00:17:55;;;;;;;58.58;28.98;;;;;;;1.92;81.09;101285.16;4994609;28;20049;-63
2022/01/27 00:20:20;;;;;;;52.85;26.00;;;;;;;1.92;80.73;101287.72;4961296;28;20038;-63
2022/01/27 00:22:46;;;;;;;52.25;25.38;;;;;;;1.94;81.05;101298.06;4976944;28;20040;-62
2022/01/27 00:25:14;;;;;;;62.20;30.52;;;;;;;1.93;80.63;101292.03;4994279;28;20070;-62
2022/01/27 00:27:44;;;;;;;51.83;27.70;;;;;;;1.93;80.84;101288.63;4960641;28;20406;-63
2022/01/27 00:30:10;;;;;;;56.13;28.35;;;;;;;1.93;81.25;101289.50;4960746;28;20158;-63
2022/01/27 00:32:36;;;;;;;48.67;25.95;;;;;;;1.94;80.81;101285.28;4994344;28;20478;-63
2022/01/27 00:35:06;;;;;;;55.05;28.40;;;;;;;1.94;80.85;101272.50;4992700;28;20065;-64
2022/01/27 00:37:36;;;;;;;48.65;27.30;;;;;;;1.93;81.14;101260.50;4994388;28;20101;-63
2022/01/27 00:40:07;;;;;;;55.15;27.73;;;;;;;1.91;81.14;101257.81;4976944;28;20081;-63
2022/01/27 00:42:35;;;;;;;56.35;27.80;;;;;;;1.92;80.81;101253.59;4994106;28;20137;-62
2022/01/27 00:45:04;;;;;;;49.28;26.35;;;;;;;1.91;80.65;101239.03;4976700;28;20038;-62
2022/01/27 00:47:32;;;;;;;55.75;27.48;;;;;;;1.91;81.10;101257.81;4960519;28;20081;-63
2022/01/27 00:50:03;;;;;;;49.20;25.75;;;;;;;1.92;81.03;101256.16;4976563;28;20425;-62
2022/01/27 00:52:38;;;;;;;50.17;27.55;;;;;;;1.93;80.84;101250.25;4960404;28;20085;-63
2022/01/27 00:55:08;;;;;;;52.78;27.90;;;;;;;1.93;80.78;101250.25;4976469;28;20494;-62
2022/01/27 01:00:09;;;;;;;55.33;27.38;;;;;;;1.91;80.83;101226.25;4994012;28;20061;-62
2022/01/27 01:07:49;;;;;;;56.63;27.80;;;;;;;1.91;81.18;101234.78;4993788;28;20439;-63
2022/01/27 01:15:42;;;;;;;52.60;26.90;;;;;;;1.91;81.05;101198.13;4994204;28;20044;-63
2022/01/27 01:18:34;;;;;;;53.15;28.25;;;;;;;1.90;80.97;101193.78;4993930;28;20491;-63
2022/01/27 01:21:43;;;;;;;55.65;28.95;;;;;;;1.89;80.83;101189.44;4960265;28;20030;-63
2022/01/27 01:30:19;;;;;;;55.88;28.40;;;;;;;1.88;80.99;101172.34;4993723;28;20035;-63
2022/01/27 01:32:57;;;;;;;52.90;27.98;;;;;;;1.87;80.82;101175.66;4993299;28;20035;-62
2022/01/27 01:35:28;;;;;;;49.45;28.98;;;;;;;1.87;81.08;101165.44;4976481;28;20042;-63
2022/01/27 01:37:58;;;;;;;59.35;30.60;;;;;;;1.87;80.74;101173.13;4993642;28;20113;-63
2022/01/27 01:40:28;;;;;;;49.25;27.63;;;;;;;1.88;80.96;101170.66;4976105;28;20407;-62
2022/01/27 01:42:54;;;;;;;47.38;26.20;;;;;;;1.89;81.05;101162.19;4979414;28;20438;-62
2022/01/27 01:45:33;;;;;;;46.53;26.67;;;;;;;1.89;80.80;101151.97;4996763;28;20034;-63
2022/01/27 01:47:59;;;;;;;50.90;26.13;;;;;;;1.89;81.02;101140.88;4963940;28;20034;-63
2022/01/27 01:50:25;;;;;;;53.38;28.08;;;;;;;1.87;81.04;101157.78;4996984;28;20035;-62
2022/01/27 01:52:56;;;;;;;54.17;27.80;;;;;;;1.88;81.09;101151.88;4996833;28;20038;-63
2022/01/27 01:55:25;;;;;;;44.50;24.15;;;;;;;1.89;81.06;101143.44;4997288;28;20046;-63
2022/01/27 01:57:54;;;;;;;59.20;28.00;;;;;;;1.90;81.00;101143.53;4996761;28;20050;-63
2022/01/27 02:00:22;;;;;;;45.53;25.45;;;;;;;1.89;81.06;101154.53;4996836;28;20061;-62
2022/01/27 02:02:51;;;;;;;50.95;27.27;;;;;;;1.90;80.76;101142.66;4988763;28;20084;-63
2022/01/27 02:05:25;;;;;;;49.42;26.92;;;;;;;1.91;80.90;101145.31;4979146;28;20030;-63
2022/01/27 02:08:32;;;;;;;48.22;28.17;;;;;;;1.91;80.85;101163.19;4995568;28;20038;-63
2022/01/27 02:19:17;;;;;;;42.92;24.67;;;;;;;1.93;81.27;101156.53;4996759;28;20038;-63
2022/01/27 02:21:54;;;;;;;43.40;23.77;;;;;;;1.94;81.16;101150.63;4996520;28;20045;-63
2022/01/27 02:24:22;;;;;;;51.47;26.70;;;;;;;1.93;81.11;101138.63;4978841;28;20121;-62
2022/01/27 02:26:49;;;;;;;45.35;24.60;;;;;;;1.94;81.27;101137.84;4995313;28;20034;-62
2022/01/27 02:29:20;;;;;;;48.70;25.88;;;;;;;1.95;81.12;101131.94;4979379;28;20429;-63
2022/01/27 02:31:53;;;;;;;50.13;24.42;;;;;;;1.95;80.74;101121.72;4995538;28;20509;-63
2022/01/27 02:34:27;;;;;;;46.70;23.30;;;;;;;1.96;81.08;101117.47;4995446;28;20042;-64
2022/01/27 02:36:53;;;;;;;44.65;25.67;;;;;;;1.95;81.20;101115.69;4978675;28;20035;-63
2022/01/27 02:39:19;;;;;;;44.38;24.40;;;;;;;1.94;80.60;101109.72;4978910;28;20093;-64
2022/01/27 02:41:54;;;;;;;42.60;26.08;;;;;;;1.95;80.90;101108.03;4978624;28;20039;-63
2022/01/27 02:44:32;;;;;;;49.10;26.35;;;;;;;1.95;80.94;101101.25;4995976;28;20053;-63
2022/01/27 02:46:59;;;;;;;45.05;22.70;;;;;;;1.97;81.03;101096.25;4979061;28;20061;-63
2022/01/27 02:49:30;;;;;;;47.05;24.73;;;;;;;1.98;81.17;101090.34;4994756;28;20038;-62
2022/01/27 02:51:56;;;;;;;48.88;26.48;;;;;;;1.97;80.99;101083.47;4994519;28;20485;-63
2022/01/27 02:54:24;;;;;;;45.17;24.83;;;;;;;1.97;81.11;101088.56;4995158;28;20053;-63
2022/01/27 02:56:55;;;;;;;42.40;24.85;;;;;;;1.98;80.90;101087.78;4996270;28;20045;-63
2022/01/27 02:59:24;;;;;;;45.58;25.45;;;;;;;1.96;81.23;101082.59;4994630;28;20042;-63
2022/01/27 03:01:53;;;;;;;49.55;25.17;;;;;;;1.98;80.98;101080.13;4995740;28;20077;-63
2022/01/27 03:04:20;;;;;;;47.38;24.58;;;;;;;1.98;81.02;101077.56;4962236;28;20042;-63
2022/01/27 03:06:53;;;;;;;45.30;23.65;;;;;;;1.98;80.79;101070.78;4962242;28;20034;-62
2022/01/27 03:09:25;;;;;;;48.35;25.17;;;;;;;2.00;81.34;101077.69;4996088;28;20043;-64
2022/01/27 03:12:10;;;;;;;44.85;25.00;;;;;;;2.00;80.87;101072.56;4961834;28;20034;-63
2022/01/27 03:14:37;;;;;;;46.15;25.45;;;;;;;2.01;81.13;101062.44;4978234;28;20042;-63
2022/01/27 03:17:07;;;;;;;46.22;23.73;;;;;;;2.01;81.34;101054.75;4978063;28;20042;-63
2022/01/27 03:19:37;;;;;;;44.90;25.00;;;;;;;2.01;81.12;101059.88;4978043;28;20042;-63
2022/01/27 03:22:11;;;;;;;44.90;25.48;;;;;;;2.02;81.20;101064.22;4995340;28;20045;-64
2022/01/27 03:24:38;;;;;;;46.22;23.23;;;;;;;2.03;80.80;101060.88;4977680;28;20057;-63
2022/01/27 03:27:25;;;;;;;43.22;24.45;;;;;;;2.03;80.81;101058.31;4961575;28;20042;-63
2022/01/27 03:30:00;;;;;;;42.35;23.90;;;;;;;2.03;81.10;101049.72;4977746;28;20076;-62
2022/01/27 03:32:51;;;;;;;44.08;24.80;;;;;;;2.05;80.45;101058.41;4995142;28;20077;-63
2022/01/27 03:35:24;;;;;;;45.20;25.83;;;;;;;2.06;80.89;101052.50;4977743;28;20451;-63
2022/01/27 03:37:49;;;;;;;47.42;24.95;;;;;;;2.05;81.10;101046.53;4977490;28;20037;-63
2022/01/27 03:40:28;;;;;;;49.03;27.17;;;;;;;2.05;81.01;101056.75;4994945;28;20049;-63
2022/01/27 03:43:05;;;;;;;46.55;22.88;;;;;;;2.05;81.43;101043.06;4961538;28;20041;-63
2022/01/27 03:45:31;;;;;;;49.72;25.30;;;;;;;2.04;80.92;101031.97;4977537;28;20490;-64
2022/01/27 03:48:06;;;;;;;45.13;24.05;;;;;;;2.06;81.26;101032.03;4961654;28;20046;-63
2022/01/27 03:50:32;;;;;;;50.00;23.10;;;;;;;2.06;81.19;101034.59;4994781;28;20026;-63
2022/01/27 03:53:03;;;;;;;46.67;24.40;;;;;;;2.08;81.36;101020.25;4977283;28;20069;-63
2022/01/27 03:55:31;;;;;;;44.72;23.02;;;;;;;2.08;81.29;101035.59;4977228;28;20035;-63
2022/01/27 03:58:02;;;;;;;48.60;23.58;;;;;;;2.10;81.31;101039.16;4961177;28;20030;-63
2022/01/27 04:00:30;;;;;;;46.65;24.52;;;;;;;2.09;81.40;101038.28;4977395;28;20046;-63
2022/01/27 04:03:10;;;;;;;50.80;26.10;;;;;;;2.09;81.12;101035.72;4971475;28;20054;-62
2022/01/27 04:05:38;;;;;;;40.28;22.88;;;;;;;2.10;80.93;101037.44;4976978;28;20038;-64
2022/01/27 04:08:09;;;;;;;44.50;23.65;;;;;;;2.10;81.25;101042.56;4977326;28;20042;-62
2022/01/27 04:10:40;;;;;;;45.78;22.65;;;;;;;2.10;80.71;101032.34;4976842;28;20026;-63
2022/01/27 04:13:07;;;;;;;47.38;23.42;;;;;;;2.11;81.19;101036.66;5009834;28;20054;-62
2022/01/27 04:15:38;;;;;;;51.58;26.60;;;;;;;2.13;81.17;101037.66;4993563;28;20038;-64
2022/01/27 04:18:09;;;;;;;46.50;24.85;;;;;;;2.12;80.96;101028.22;4994656;28;20038;-63
2022/01/27 04:20:36;;;;;;;43.80;24.77;;;;;;;2.13;81.44;101026.56;4977653;28;20046;-63
2022/01/27 04:23:08;;;;;;;46.35;22.77;;;;;;;2.14;81.05;101023.22;4976865;28;20057;-62
2022/01/27 04:25:38;;;;;;;43.30;22.38;;;;;;;2.13;81.41;101024.88;4994339;28;20650;-62
2022/01/27 04:28:12;;;;;;;48.05;24.77;;;;;;;2.14;81.18;101030.91;4993137;28;20509;-64
2022/01/27 04:30:40;;;;;;;;;;;;;;;2.15;80.63;101021.53;4977078;28;20469;-64
2022/01/27 04:33:10;;;;;;;46.25;22.65;;;;;;;2.14;81.10;101025.78;4977043;28;19920;-63
2022/01/27 04:35:45;;;;;;;44.42;23.50;;;;;;;2.16;81.09;101026.78;4994330;28;20504;-63
2022/01/27 04:41:03;;;;;;;47.17;23.88;;;;;;;2.15;80.79;101025.00;5009258;28;20034;-64
2022/01/27 04:46:14;;;;;;;46.35;24.23;;;;;;;2.15;81.29;101016.41;5009119;28;20066;-63
2022/01/27 04:48:45;;;;;;;52.70;26.25;;;;;;;2.17;81.13;101017.41;4976562;28;20084;-62
2022/01/27 04:51:19;;;;;;;43.45;23.13;;;;;;;2.18;80.91;101011.50;4994303;28;20030;-62
2022/01/27 04:54:06;;;;;;;53.95;25.50;;;;;;;2.17;81.11;101007.19;4992889;28;20474;-62
2022/01/27 04:56:34;;;;;;;45.08;23.17;;;;;;;2.18;81.22;101011.50;4992676;28;20094;-63
2022/01/27 04:59:07;;;;;;;49.90;26.35;;;;;;;2.17;81.05;101010.63;4992968;28;20046;-63
2022/01/27 05:02:00;;;;;;;47.53;25.27;;;;;;;2.18;80.99;101009.81;4992593;28;20529;-64
2022/01/27 05:04:21;;;;;;;49.55;23.15;;;;;;;2.20;80.84;101009.94;4976060;28;20046;-62
2022/01/27 05:06:50;;;;;;;50.33;25.35;;;;;;;2.19;81.67;101000.50;4960249;28;20042;-63
2022/01/27 05:09:19;;;;;;;45.65;24.35;;;;;;;2.20;81.10;100999.72;4960549;28;20049;-62
2022/01/27 05:11:55;;;;;;;51.25;25.08;;;;;;;2.19;81.42;100996.25;4960466;28;20074;-63
2022/01/27 05:14:26;;;;;;;48.08;24.85;;;;;;;2.20;81.39;100994.59;4960256;28;20088;-63
2022/01/27 05:16:54;;;;;;;48.33;25.95;;;;;;;2.21;81.07;100999.81;4962754;28;20064;-63
2022/01/27 05:19:23;;;;;;;51.55;23.90;;;;;;;2.19;80.88;101001.38;4997411;28;20478;-62
2022/01/27 05:21:51;;;;;;;44.10;24.85;;;;;;;2.19;81.12;101003.94;4980594;28;20050;-63
2022/01/27 05:24:25;;;;;;;53.63;25.23;;;;;;;2.20;81.06;100999.72;4997441;28;20042;-63
2022/01/27 05:26:56;;;;;;;50.75;26.25;;;;;;;2.20;81.25;100994.59;4997482;28;20046;-63
2022/01/27 05:29:22;;;;;;;55.58;24.83;;;;;;;2.21;81.11;100983.59;4997674;28;20117;-63
2022/01/27 05:31:52;;;;;;;49.75;23.05;;;;;;;2.20;81.55;100987.78;4997651;28;20122;-63
2022/01/27 05:34:21;;;;;;;50.35;25.08;;;;;;;2.21;81.41;100984.44;4980019;28;20509;-63
2022/01/27 05:36:55;;;;;;;51.42;25.27;;;;;;;2.22;81.42;100983.66;4963756;28;20089;-64
2022/01/27 05:39:26;;;;;;;58.13;26.92;;;;;;;2.22;81.19;100970.00;4963670;28;20064;-63
2022/01/27 05:41:56;;;;;;;52.92;27.23;;;;;;;2.23;81.47;100974.34;4997720;28;20049;-63
2022/01/27 05:44:24;;;;;;;49.45;25.05;;;;;;;2.23;81.44;100969.22;4979859;28;20434;-63
2022/01/27 05:46:52;;;;;;;52.08;25.80;;;;;;;2.24;81.51;100960.75;4979431;28;20046;-63
2022/01/27 05:49:24;;;;;;;60.13;26.75;;;;;;;2.26;81.01;100954.03;4963641;28;20117;-63
2022/01/27 05:51:52;;;;;;;53.42;26.08;;;;;;;2.23;81.70;100949.63;4963443;28;20125;-62
2022/01/27 05:54:23;;;;;;;46.20;24.98;;;;;;;2.25;81.52;100947.19;4996945;28;20038;-63
2022/01/27 05:56:54;;;;;;;50.20;27.42;;;;;;;2.25;81.65;100950.63;4963726;28;20042;-63
2022/01/27 05:59:20;;;;;;;55.50;25.70;;;;;;;2.26;82.04;100936.13;4979575;28;20056;-63
2022/01/27 06:01:51;;;;;;;51.47;27.40;;;;;;;2.27;81.52;100932.78;4996850;28;20096;-63
2022/01/27 06:04:20;;;;;;;55.80;28.08;;;;;;;2.27;81.65;100927.69;4996690;28;20051;-63
2022/01/27 06:06:53;;;;;;;54.80;27.58;;;;;;;2.26;81.63;100913.13;4996446;28;20038;-63
2022/01/27 06:09:18;;;;;;;47.53;24.50;;;;;;;2.28;81.67;100929.44;4962988;28;20041;-62
2022/01/27 06:11:50;;;;;;;51.28;25.52;;;;;;;2.30;81.58;100932.13;4996661;28;20030;-63
2022/01/27 06:14:24;;;;;;;50.80;25.17;;;;;;;2.28;81.03;100932.00;4996783;28;20061;-63
2022/01/27 06:16:56;;;;;;;51.40;24.83;;;;;;;2.28;81.30;100937.13;4963032;28;20520;-63
2022/01/27 06:19:30;;;;;;;48.78;24.45;;;;;;;2.29;81.44;100926.09;4963523;28;20034;-63
2022/01/27 06:21:58;;;;;;;;;;;;;;;2.25;81.11;100927.59;4996996;28;20109;-63
2022/01/27 06:24:24;;;;;;;58.67;24.98;;;;;;;2.25;81.60;100917.34;4978927;28;19913;-64
2022/01/27 06:26:57;;;;;;;54.50;26.23;;;;;;;2.26;81.13;100918.22;4978483;28;20401;-63
2022/01/27 06:29:28;;;;;;;59.00;28.60;;;;;;;2.25;81.70;100909.69;4963055;28;20031;-63
2022/01/27 06:32:02;;;;;;;55.55;27.08;;;;;;;2.28;81.49;100911.53;4978587;28;20038;-63
2022/01/27 06:34:30;;;;;;;58.58;28.67;;;;;;;2.26;81.65;100908.00;4979530;28;20042;-63
2022/01/27 06:37:01;;;;;;;59.08;29.42;;;;;;;2.27;81.33;100910.66;4994890;28;20088;-63
2022/01/27 06:39:32;;;;;;;51.47;26.15;;;;;;;2.27;81.39;100905.56;4962508;28;20053;-63
2022/01/27 06:42:05;;;;;;;54.47;27.98;;;;;;;2.26;81.69;100914.03;4996116;28;20030;-63
2022/01/27 06:44:30;;;;;;;54.42;28.13;;;;;;;2.28;81.06;100893.63;4996468;28;20046;-63
2022/01/27 06:47:02;;;;;;;60.08;28.00;;;;;;;2.28;81.78;100903.88;4995997;28;20042;-63
2022/01/27 06:49:30;;;;;;;53.67;27.88;;;;;;;2.27;81.36;100897.88;4962667;28;20061;-63
2022/01/27 06:51:58;;;;;;;58.60;29.63;;;;;;;2.28;81.59;100897.09;4996108;28;20038;-63
2022/01/27 06:54:24;;;;;;;61.70;29.15;;;;;;;2.29;81.74;100903.09;4994623;28;20030;-62
2022/01/27 06:56:55;;;;;;;55.65;26.83;;;;;;;2.29;81.28;100890.28;4994535;28;20030;-63
2022/01/27 06:59:23;;;;;;;59.05;27.50;;;;;;;2.27;81.16;100890.22;4962230;28;20038;-63
2022/01/27 07:01:48;;;;;;;63.03;28.90;;;;;;;2.29;81.76;100903.09;4995752;28;20510;-63
2022/01/27 07:04:17;;;;;;;56.83;28.67;;;;;;;2.29;81.09;100900.53;4994699;28;20042;-63
2022/01/27 07:06:47;;;;;;;59.45;28.42;;;;;;;2.29;81.79;100887.72;4962027;28;20042;-63
2022/01/27 07:09:17;;;;;;;58.05;28.90;;;;;;;2.29;81.90;100882.63;4995644;28;20039;-64
2022/01/27 07:11:43;;;;;;;57.40;27.58;;;;;;;2.30;81.60;100879.28;4961973;28;20038;-63
2022/01/27 07:14:08;;;;;;;54.38;26.33;;;;;;;2.30;81.70;100896.31;4978161;28;20034;-63
2022/01/27 07:16:42;;;;;;;55.97;27.67;;;;;;;2.30;81.78;100886.06;4995276;28;20118;-63
2022/01/27 07:19:16;;;;;;;54.03;26.05;;;;;;;2.31;81.47;100880.16;4962130;28;20085;-63
2022/01/27 07:21:42;;;;;;;57.15;27.45;;;;;;;2.31;81.49;100880.16;4978008;28;20038;-62
2022/01/27 07:24:07;;;;;;;52.88;26.35;;;;;;;2.33;81.21;100887.16;4995688;28;20125;-63
2022/01/27 07:26:33;;;;;;;54.97;26.65;;;;;;;2.33;81.58;100884.59;4995558;28;20446;-63
2022/01/27 07:29:02;;;;;;;54.15;25.98;;;;;;;2.34;81.42;100891.47;4995528;28;20026;-62
2022/01/27 07:31:28;;;;;;;54.00;25.50;;;;;;;2.34;81.72;100886.34;4961613;28;20048;-62
2022/01/27 07:33:54;;;;;;;50.92;27.25;;;;;;;2.35;81.62;100877.91;4977704;28;20030;-63
2022/01/27 07:36:20;;;;;;;49.92;25.77;;;;;;;2.35;81.61;100880.47;4977768;28;20042;-63
2022/01/27 07:38:48;;;;;;;56.00;26.77;;;;;;;2.36;81.53;100887.34;4993051;28;20462;-63
2022/01/27 07:41:15;;;;;;;50.65;24.90;;;;;;;2.36;81.97;100882.22;4995009;28;20129;-63
2022/01/27 07:43:41;;;;;;;52.30;24.60;;;;;;;2.37;81.43;100878.88;4961468;28;20081;-62
2022/01/27 07:46:15;;;;;;;55.10;27.00;;;;;;;2.40;81.99;100873.06;4977615;28;20050;-62
2022/01/27 07:48:44;;;;;;;54.47;24.98;;;;;;;2.41;81.50;100872.28;4977648;28;20042;-63
2022/01/27 07:51:12;;;;;;;52.15;25.23;;;;;;;2.42;81.70;100867.22;4960451;28;20043;-63
2022/01/27 07:53:43;;;;;;;47.85;25.63;;;;;;;2.42;81.50;100874.91;4961439;28;20125;-63
2022/01/27 07:56:13;;;;;;;54.85;26.50;;;;;;;2.42;81.62;100869.78;4994898;28;20050;-63
2022/01/27 07:58:42;;;;;;;49.13;24.95;;;;;;;2.43;81.17;100865.56;4961243;28;20084;-63
2022/01/27 08:01:13;;;;;;;52.17;25.75;;;;;;;2.44;81.57;100869.91;4994826;28;20061;-63
2022/01/27 08:03:39;;;;;;;47.13;24.40;;;;;;;2.45;81.38;100871.69;4977234;28;20030;-63
2022/01/27 08:06:06;;;;;;;49.85;24.80;;;;;;;2.46;81.69;100870.00;4976944;28;20045;-63
2022/01/27 08:08:34;;;;;;;47.33;24.13;;;;;;;2.47;81.34;100867.53;4993352;28;20134;-63
2022/01/27 08:11:02;;;;;;;50.00;23.30;;;;;;;2.48;81.61;100865.84;4977080;28;20117;-63
2022/01/27 08:13:30;;;;;;;51.83;25.50;;;;;;;2.48;81.74;100861.66;4977213;28;20030;-63
2022/01/27 08:16:06;;;;;;;59.63;25.42;;;;;;;2.49;81.49;100859.94;4994424;28;20042;-63
2022/01/27 08:18:31;;;;;;;48.85;23.73;;;;;;;2.50;81.44;100851.50;4961130;28;20387;-63
2022/01/27 08:20:57;;;;;;;56.97;23.30;;;;;;;2.51;81.53;100866.06;4993079;28;20046;-63
2022/01/27 08:23:25;;;;;;;50.45;24.00;;;;;;;2.51;81.72;100879.72;4976817;28;20057;-63
2022/01/27 08:26:03;;;;;;;46.03;22.90;;;;;;;2.53;81.33;100873.03;4960505;28;20093;-63
2022/01/27 08:28:39;;;;;;;51.92;25.08;;;;;;;2.54;81.69;100881.59;4960853;28;20030;-63
2022/01/27 08:31:18;;;;;;;43.70;22.52;;;;;;;2.53;81.53;100879.84;4993121;28;20060;-63
2022/01/27 08:33:49;;;;;;;48.88;23.75;;;;;;;2.52;81.44;100878.06;4993183;28;20509;-64
2022/01/27 08:36:22;;;;;;;58.72;24.02;;;;;;;2.55;81.75;100874.00;4960733;28;20129;-63
2022/01/27 08:38:49;;;;;;;46.08;24.05;;;;;;;2.54;81.46;100861.13;4976990;28;20447;-63
2022/01/27 08:41:14;;;;;;;43.70;23.73;;;;;;;2.54;81.74;100856.88;4992901;28;20039;-63
2022/01/27 08:43:44;;;;;;;45.50;22.38;;;;;;;2.55;81.32;100856.09;4994053;28;20121;-64
2022/01/27 08:46:13;;;;;;;47.25;23.80;;;;;;;2.56;81.74;100857.00;4976671;28;20125;-63
2022/01/27 08:48:42;;;;;;;49.38;23.63;;;;;;;2.57;81.77;100877.56;4992885;28;20034;-64
2022/01/27 08:51:10;;;;;;;49.47;26.70;;;;;;;2.57;81.39;100879.22;4996422;28;20038;-64
2022/01/27 08:53:41;;;;;;;45.10;23.13;;;;;;;2.57;81.39;100884.31;4998101;28;20041;-64
2022/01/27 08:56:13;;;;;;;45.72;23.25;;;;;;;2.57;81.97;100882.66;4980819;28;20081;-64
2022/01/27 08:58:50;;;;;;;46.72;25.58;;;;;;;2.59;81.97;100882.75;4997258;28;20033;-63
2022/01/27 09:01:16;;;;;;;48.35;23.55;;;;;;;2.59;81.75;100893.00;4980194;28;20122;-64
2022/01/27 09:03:45;;;;;;;48.78;23.17;;;;;;;2.62;81.88;100892.31;4997923;28;20121;-63
2022/01/27 09:06:20;;;;;;;44.78;22.45;;;;;;;2.60;81.46;100899.88;4980510;28;20156;-64
2022/01/27 09:08:52;;;;;;;45.70;25.08;;;;;;;2.60;81.59;100902.44;4981057;28;20038;-64
2022/01/27 09:11:28;;;;;;;44.67;21.83;;;;;;;2.61;81.96;100899.09;4964196;28;20038;-64
2022/01/27 09:13:59;;;;;;;43.67;23.42;;;;;;;2.61;81.66;100881.19;4964143;28;20041;-63
2022/01/27 09:16:31;;;;;;;47.20;22.52;;;;;;;2.61;81.90;100872.63;4980561;28;20125;-63
2022/01/27 09:19:03;;;;;;;50.78;24.23;;;;;;;2.64;81.84;100876.25;4997671;28;20425;-63
2022/01/27 09:21:41;;;;;;;51.28;23.55;;;;;;;2.64;82.19;100876.25;4964494;28;20064;-64
2022/01/27 09:24:07;;;;;;;54.28;24.63;;;;;;;2.65;81.84;100875.47;4964305;28;20414;-63
2022/01/27 09:26:49;;;;;;;43.83;22.45;;;;;;;2.66;81.89;100871.22;4997533;28;20474;-63
2022/01/27 09:29:19;;;;;;;45.10;22.98;;;;;;;2.65;81.92;100872.91;4997432;28;20520;-64
2022/01/27 09:31:50;;;;;;;40.67;22.02;;;;;;;2.66;81.97;100877.22;4963819;28;20046;-63
2022/01/27 09:34:19;;;;;;;49.33;24.48;;;;;;;2.67;82.07;100872.97;4980064;28;20034;-63
2022/01/27 09:36:50;;;;;;;48.05;23.60;;;;;;;2.67;81.69;100870.44;4963993;28;20042;-63
2022/01/27 09:39:17;;;;;;;45.63;24.60;;;;;;;2.68;81.61;100877.31;4997420;28;20054;-63
2022/01/27 09:41:47;;;;;;;46.90;24.85;;;;;;;2.67;81.79;100871.31;4997180;28;20077;-63
2022/01/27 09:44:24;;;;;;;48.40;24.92;;;;;;;2.69;81.97;100877.44;4979778;28;20513;-63
2022/01/27 09:46:49;;;;;;;47.67;23.05;;;;;;;2.68;81.67;100875.66;4963871;28;20080;-63
2022/01/27 09:49:29;;;;;;;47.45;24.13;;;;;;;2.71;82.25;100872.38;4997247;28;20030;-62
2022/01/27 09:52:02;;;;;;;41.28;22.73;;;;;;;2.70;82.00;100876.63;4963659;28;20533;-64
2022/01/27 09:54:33;;;;;;;46.70;23.77;;;;;;;2.70;81.77;100874.09;4979620;28;20037;-63
2022/01/27 09:57:00;;;;;;;46.10;23.55;;;;;;;2.71;81.55;100872.38;4979820;28;20469;-63
2022/01/27 09:59:26;;;;;;;51.65;24.55;;;;;;;2.72;82.25;100885.31;4963430;28;20077;-63
2022/01/27 10:02:01;;;;;;;52.25;25.48;;;;;;;2.73;82.03;100881.06;4980490;28;20038;-63
2022/01/27 10:04:47;;;;;;;43.60;23.17;;;;;;;2.73;82.02;100864.00;4997052;28;20043;-63
2022/01/27 10:07:21;;;;;;;50.42;26.50;;;;;;;2.73;81.87;100860.56;5011565;28;20065;-63
2022/01/27 10:10:15;;;;;;;46.25;24.65;;;;;;;2.73;82.03;100873.38;4995671;28;20034;-63
2022/01/27 10:12:49;;;;;;;46.90;24.30;;;;;;;2.74;82.05;100878.56;4995665;28;20040;-63
2022/01/27 10:15:24;;;;;;;46.22;24.45;;;;;;;2.75;82.23;100879.47;4995477;28;20046;-63
2022/01/27 10:18:14;;;;;;;46.25;22.23;;;;;;;2.76;82.01;100872.66;4996842;28;20121;-63
2022/01/27 10:21:07;;;;;;;47.80;24.48;;;;;;;2.76;81.55;100872.66;4995561;28;20046;-63
2022/01/27 10:23:40;;;;;;;56.90;23.67;;;;;;;2.77;82.14;100866.75;4979418;28;20034;-63
2022/01/27 10:26:22;;;;;;;41.58;24.75;;;;;;;2.78;82.10;100883.88;4995745;28;20066;-63
2022/01/27 10:29:47;;;;;;;48.35;25.42;;;;;;;2.79;81.99;100880.53;4995035;28;20062;-63
2022/01/27 10:31:42;;;;;;;43.95;24.50;;;;;;;2.79;82.52;100863.50;4989727;28;20058;-63
2022/01/27 10:34:10;;;;;;;48.92;25.77;;;;;;;2.80;82.18;100869.50;4996317;28;20058;-63
2022/01/27 10:36:44;;;;;;;44.13;24.60;;;;;;;2.81;82.45;100873.84;4996309;28;20600;-62
2022/01/27 10:39:22;;;;;;;43.75;22.90;;;;;;;2.82;82.37;100875.59;4978980;28;20561;-63
2022/01/27 10:42:09;;;;;;;46.67;24.63;;;;;;;2.82;81.72;100884.16;4995392;28;20042;-63
2022/01/27 10:44:47;;;;;;;47.90;23.65;;;;;;;2.83;82.08;100872.25;4978939;28;20046;-63
2022/01/27 10:47:21;;;;;;;46.90;23.42;;;;;;;2.83;82.01;100882.50;4979041;28;20490;-63
2022/01/27 10:54:57;;;;;;;46.30;26.30;;;;;;;2.83;82.61;100864.56;4976265;28;19925;-64
2022/01/27 10:57:24;;;;;;;44.70;23.35;;;;;;;2.84;82.31;100858.66;4959259;28;20034;-63
2022/01/27 11:00:15;;;;;;;47.38;23.88;;;;;;;2.85;82.35;100857.88;4975234;28;20062;-63
2022/01/27 11:03:02;;;;;;;48.90;23.98;;;;;;;2.85;82.50;100858.75;4958714;28;20042;-63
2022/01/27 11:05:41;;;;;;;39.33;24.35;;;;;;;2.87;82.75;100857.16;4974786;28;20499;-62
2022/01/27 11:08:07;;;;;;;48.15;25.80;;;;;;;2.88;82.09;100860.63;4975933;28;20177;-63
2022/01/27 11:10:32;;;;;;;49.10;24.23;;;;;;;2.87;81.85;100861.41;4975767;28;20027;-63
2022/01/27 11:13:04;;;;;;;45.03;23.38;;;;;;;2.89;82.60;100860.72;4975888;28;20041;-62
2022/01/27 11:15:41;;;;;;;46.67;25.65;;;;;;;2.89;82.19;100855.59;4975492;28;20078;-63
2022/01/27 11:18:16;;;;;;;48.10;24.17;;;;;;;2.91;82.13;100863.34;4976066;28;20039;-63
2022/01/27 11:21:01;;;;;;;50.30;24.50;;;;;;;2.92;82.72;100861.69;4976244;28;20038;-63
2022/01/27 11:26:19;;;;;;;44.35;24.23;;;;;;;2.92;82.33;100844.63;4990847;28;20035;-63
2022/01/27 11:28:48;;;;;;;44.28;22.20;;;;;;;2.92;82.53;100834.38;4958286;28;20486;-64
2022/01/27 11:31:42;;;;;;;43.42;23.95;;;;;;;2.95;82.12;100832.00;4974781;28;20495;-63
2022/01/27 11:34:14;;;;;;;41.85;23.10;;;;;;;2.94;82.13;100834.50;4974565;28;20041;-62
2022/01/27 11:37:18;;;;;;;42.17;22.77;;;;;;;2.96;82.54;100831.22;4974572;28;20039;-62
2022/01/27 11:39:48;;;;;;;40.72;22.15;;;;;;;2.95;82.34;100836.28;4952091;28;20503;-62
2022/01/27 11:42:34;;;;;;;38.65;22.30;;;;;;;2.96;82.39;100820.13;4975598;28;20537;-63
2022/01/27 11:45:34;;;;;;;41.95;23.17;;;;;;;2.96;82.16;100818.41;4935236;28;20058;-63
2022/01/27 11:48:07;;;;;;;43.38;22.38;;;;;;;2.96;81.95;100820.97;4958820;28;20047;-63
2022/01/27 11:50:48;;;;;;;33.90;21.08;;;;;;;2.98;82.73;100828.75;4958596;28;20526;-63
2022/01/27 11:53:33;;;;;;;39.45;22.20;;;;;;;2.98;82.36;100821.06;4974406;28;20039;-63
2022/01/27 11:56:03;;;;;;;32.13;18.20;;;;;;;2.98;82.69;100816.84;4958765;28;20070;-63
2022/01/27 11:58:43;;;;;;;35.78;20.55;;;;;;;3.01;82.34;100831.50;4957920;28;20049;-64
2022/01/27 12:01:11;;;;;;;31.10;20.63;;;;;;;3.01;81.86;100823.81;4972740;28;20042;-64
2022/01/27 12:04:08;;;;;;;32.00;19.25;;;;;;;3.02;82.46;100816.22;4957541;28;20052;-63
2022/01/27 12:07:04;;;;;;;29.90;17.95;;;;;;;3.01;82.87;100799.09;4954513;28;20553;-63
2022/01/27 12:09:32;;;;;;;32.53;19.10;;;;;;;3.04;82.70;100806.06;4973989;28;20053;-62
2022/01/27 12:12:06;;;;;;;31.35;17.77;;;;;;;3.04;82.52;100803.50;4957517;28;20039;-63
2022/01/27 12:14:34;;;;;;;;;;;;;;;3.05;82.32;100810.41;4973762;28;20065;-62
2022/01/27 12:17:09;;;;;;;28.50;18.70;;;;;;;3.03;82.67;100806.84;4958098;28;19961;-63
2022/01/27 12:20:02;;;;;;;35.47;19.88;;;;;;;3.05;82.63;100812.97;4974979;28;20050;-63
2022/01/27 12:22:44;;;;;;;32.60;18.10;;;;;;;3.05;82.73;100818.94;4957618;28;20121;-64
2022/01/27 12:25:10;;;;;;;30.25;18.00;;;;;;;3.07;82.38;100815.59;4957291;28;20043;-62
2022/01/27 12:27:37;;;;;;;28.10;17.65;;;;;;;3.08;82.56;100814.81;4974809;28;20042;-63